createdAt,value
2017-11-21T00:00:07.345Z,1009.41
2017-11-21T00:01:29.316Z,1009.45
2017-11-21T00:02:50.753Z,1009.42
2017-11-21T00:04:12.475Z,1009.39
2017-11-21T00:05:34.462Z,1009.34
2017-11-21T00:06:56.173Z,1009.36
2017-11-21T00:08:18.597Z,1009.39
2017-11-21T00:09:40.714Z,1009.38
2017-11-21T00:11:02.415Z,1009.35
2017-11-21T00:12:24.509Z,1009.36
2017-11-21T00:13:46.486Z,1009.32
2017-11-21T00:15:08.248Z,1009.3
2017-11-21T00:16:30.214Z,1009.31
2017-11-21T00:17:51.912Z,1009.27
2017-11-21T00:19:14.324Z,1009.28
2017-11-21T00:20:36.815Z,1009.2
2017-11-21T00:21:58.823Z,1009.21
2017-11-21T00:23:20.570Z,1009.24
2017-11-21T00:24:42.616Z,1009.25
2017-11-21T00:26:04.609Z,1009.26
2017-11-21T00:27:26.336Z,1009.26
2017-11-21T00:28:47.876Z,1009.19
2017-11-21T00:30:09.349Z,1009.16
2017-11-21T00:31:31.085Z,1009.19
2017-11-21T00:32:53.144Z,1009.23
2017-11-21T00:34:14.576Z,1009.16
2017-11-21T00:35:36.564Z,1009.16
2017-11-21T00:36:58.453Z,1009.23
2017-11-21T00:38:20.161Z,1009.21
2017-11-21T00:39:41.899Z,1009.26
2017-11-21T00:41:04.236Z,1009.23
2017-11-21T00:42:26.265Z,1009.23
2017-11-21T00:43:48.031Z,1009.22
2017-11-21T00:45:10.361Z,1009.16
2017-11-21T00:46:32.389Z,1009.14
2017-11-21T00:47:54.633Z,1009.17
2017-11-21T00:49:16.348Z,1009.09
2017-11-21T00:50:38.345Z,1009.07
2017-11-21T00:51:59.766Z,1009.09
2017-11-21T00:53:21.577Z,1009.17
2017-11-21T00:54:43.560Z,1009.17
2017-11-21T00:56:04.985Z,1009.15
2017-11-21T00:57:26.992Z,1009.18
2017-11-21T00:58:48.699Z,1009.15
2017-11-21T01:00:10.695Z,1009.2
2017-11-21T01:01:32.644Z,1009.19
2017-11-21T01:02:54.327Z,1009.17
2017-11-21T01:04:15.753Z,1009.15
2017-11-21T01:05:37.210Z,1009.17
2017-11-21T01:06:58.976Z,1009.22
2017-11-21T01:08:20.708Z,1009.26
2017-11-21T01:09:42.952Z,1009.29
2017-11-21T01:11:04.925Z,1009.28
2017-11-21T01:12:26.392Z,1009.26
2017-11-21T01:13:48.376Z,1009.31
2017-11-21T01:15:09.847Z,1009.29
2017-11-21T01:16:31.552Z,1009.29
2017-11-21T01:17:53.538Z,1009.3
2017-11-21T01:19:15.261Z,1009.34
2017-11-21T01:20:37.306Z,1009.37
2017-11-21T01:21:59.556Z,1009.38
2017-11-21T01:23:21.283Z,1009.38
2017-11-21T01:24:43.015Z,1009.43
2017-11-21T01:26:05.012Z,1009.46
2017-11-21T01:27:27.021Z,1009.41
2017-11-21T01:28:48.703Z,1009.43
2017-11-21T01:30:10.834Z,1009.43
2017-11-21T01:31:32.856Z,1009.44
2017-11-21T01:32:54.826Z,1009.41
2017-11-21T01:34:16.516Z,1009.47
2017-11-21T01:35:38.225Z,1009.42
2017-11-21T01:36:59.932Z,1009.49
2017-11-21T01:38:21.926Z,1009.45
2017-11-21T01:39:43.626Z,1009.4
2017-11-21T01:41:05.337Z,1009.46
2017-11-21T01:42:27.325Z,1009.43
2017-11-21T01:43:48.804Z,1009.43
2017-11-21T01:45:10.515Z,1009.46
2017-11-21T01:46:32.217Z,1009.44
2017-11-21T01:47:54.184Z,1009.4
2017-11-21T01:49:15.996Z,1009.47
2017-11-21T01:50:38.035Z,1009.44
2017-11-21T01:51:59.857Z,1009.43
2017-11-21T01:53:21.605Z,1009.46
2017-11-21T01:54:43.056Z,1009.41
2017-11-21T01:56:05.351Z,1009.42
2017-11-21T01:57:27.056Z,1009.41
2017-11-21T01:58:49.021Z,1009.45
2017-11-21T02:00:10.725Z,1009.43
2017-11-21T02:01:33.486Z,1009.45
2017-11-21T02:02:55.295Z,1009.41
2017-11-21T02:04:17.519Z,1009.45
2017-11-21T02:05:38.946Z,1009.46
2017-11-21T02:07:00.984Z,1009.41
2017-11-21T02:08:22.706Z,1009.39
2017-11-21T02:09:44.406Z,1009.38
2017-11-21T02:11:05.869Z,1009.42
2017-11-21T02:12:28.145Z,1009.39
2017-11-21T02:13:50.455Z,1009.38
2017-11-21T02:15:11.894Z,1009.45
2017-11-21T02:16:33.889Z,1009.41
2017-11-21T02:17:55.326Z,1009.41
2017-11-21T02:19:17.303Z,1009.44
2017-11-21T02:20:39.010Z,1009.43
2017-11-21T02:22:00.445Z,1009.41
2017-11-21T02:23:22.718Z,1009.37
2017-11-21T02:24:44.688Z,1009.37
2017-11-21T02:26:07.214Z,1009.28
2017-11-21T02:27:29.197Z,1009.28
2017-11-21T02:28:50.886Z,1009.27
2017-11-21T02:30:12.056Z,1009.27
2017-11-21T02:31:34.156Z,1009.27
2017-11-21T02:32:55.576Z,1009.27
2017-11-21T02:34:17.296Z,1009.23
2017-11-21T02:35:38.738Z,1009.2
2017-11-21T02:37:01.086Z,1009.2
2017-11-21T02:38:23.096Z,1009.18
2017-11-21T02:39:44.318Z,1009.13
2017-11-21T02:41:06.047Z,1009.2
2017-11-21T02:42:27.491Z,1009.17
2017-11-21T02:43:49.196Z,1009.11
2017-11-21T02:45:10.725Z,1009.08
2017-11-21T02:46:32.751Z,1009.06
2017-11-21T02:47:55.000Z,1009.13
2017-11-21T02:49:16.997Z,1009.23
2017-11-21T02:50:38.700Z,1009.26
2017-11-21T02:51:59.856Z,1009.29
2017-11-21T02:53:21.829Z,1009.29
2017-11-21T02:54:43.531Z,1009.33
2017-11-21T02:56:05.536Z,1009.35
2017-11-21T02:57:27.599Z,1009.34
2017-11-21T02:58:49.596Z,1009.33
2017-11-21T03:00:11.106Z,1009.31
2017-11-21T03:01:32.827Z,1009.35
2017-11-21T03:02:54.637Z,1009.4
2017-11-21T03:04:16.466Z,1009.39
2017-11-21T03:05:37.646Z,1009.4
2017-11-21T03:06:59.118Z,1009.43
2017-11-21T03:08:21.083Z,1009.47
2017-11-21T03:09:42.866Z,1009.46
2017-11-21T03:11:04.929Z,1009.44
2017-11-21T03:12:27.237Z,1009.46
2017-11-21T03:13:49.486Z,1009.53
2017-11-21T03:15:11.449Z,1009.56
2017-11-21T03:16:33.425Z,1009.5
2017-11-21T03:17:54.852Z,1009.48
2017-11-21T03:19:16.609Z,1009.48
2017-11-21T03:20:38.325Z,1009.53
2017-11-21T03:22:00.045Z,1009.51
2017-11-21T03:23:21.525Z,1009.5
2017-11-21T03:24:43.356Z,1009.49
2017-11-21T03:26:05.447Z,1009.49
2017-11-21T03:27:27.166Z,1009.5
2017-11-21T03:28:48.658Z,1009.49
2017-11-21T03:30:10.337Z,1009.49
2017-11-21T03:31:32.848Z,1009.49
2017-11-21T03:32:54.719Z,1009.51
2017-11-21T03:34:16.546Z,1009.46
2017-11-21T03:35:38.522Z,1009.46
2017-11-21T03:37:00.505Z,1009.42
2017-11-21T03:38:22.486Z,1009.42
2017-11-21T03:39:43.927Z,1009.48
2017-11-21T03:41:05.628Z,1009.49
2017-11-21T03:42:27.556Z,1009.55
2017-11-21T03:43:49.537Z,1009.57
2017-11-21T03:45:10.710Z,1009.55
2017-11-21T03:46:32.714Z,1009.51
2017-11-21T03:47:54.966Z,1009.57
2017-11-21T03:49:16.393Z,1009.62
2017-11-21T03:50:38.746Z,1009.64
2017-11-21T03:52:00.466Z,1009.7
2017-11-21T03:53:22.430Z,1009.7
2017-11-21T03:54:44.129Z,1009.66
2017-11-21T03:56:05.889Z,1009.67
2017-11-21T03:57:28.151Z,1009.65
2017-11-21T03:58:49.316Z,1009.61
2017-11-21T04:00:11.299Z,1009.61
2017-11-21T04:01:32.756Z,1009.59
2017-11-21T04:02:55.002Z,1009.59
2017-11-21T04:04:16.757Z,1009.59
2017-11-21T04:05:38.191Z,1009.63
2017-11-21T04:06:59.086Z,1009.69
2017-11-21T04:08:21.327Z,1009.71
2017-11-21T04:09:42.855Z,1009.7
2017-11-21T04:11:03.753Z,1009.69
2017-11-21T04:12:25.526Z,1009.7
2017-11-21T04:13:47.250Z,1009.67
2017-11-21T04:15:08.997Z,1009.7
2017-11-21T04:16:30.596Z,1009.73
2017-11-21T04:17:52.297Z,1009.76
2017-11-21T04:19:14.269Z,1009.77
2017-11-21T04:20:36.236Z,1009.81
2017-11-21T04:21:57.943Z,1009.85
2017-11-21T04:23:19.908Z,1009.87
2017-11-21T04:24:41.617Z,1009.88
2017-11-21T04:26:03.325Z,1009.86
2017-11-21T04:27:24.586Z,1009.85
2017-11-21T04:28:46.847Z,1009.85
2017-11-21T04:30:08.008Z,1009.87
2017-11-21T04:31:30.004Z,1009.88
2017-11-21T04:32:52.339Z,1009.92
2017-11-21T04:34:14.042Z,1009.95
2017-11-21T04:35:35.485Z,1009.91
2017-11-21T04:36:57.202Z,1009.84
2017-11-21T04:38:18.896Z,1009.84
2017-11-21T04:39:40.900Z,1009.87
2017-11-21T04:41:02.325Z,1009.86
2017-11-21T04:42:23.493Z,1009.87
2017-11-21T04:43:44.387Z,1009.87
2017-11-21T04:45:06.378Z,1009.91
2017-11-21T04:46:28.127Z,1009.89
2017-11-21T04:47:49.738Z,1009.95
2017-11-21T04:49:11.446Z,1009.97
2017-11-21T04:50:33.325Z,1009.95
2017-11-21T04:51:55.046Z,1009.93
2017-11-21T04:53:16.753Z,1009.92
2017-11-21T04:54:38.185Z,1009.92
2017-11-21T04:55:59.686Z,1009.97
2017-11-21T04:57:21.424Z,1009.98
2017-11-21T04:58:42.903Z,1010.04
2017-11-21T05:00:04.631Z,1010
2017-11-21T05:01:26.605Z,1009.97
2017-11-21T05:02:48.086Z,1009.99
2017-11-21T05:04:10.396Z,1009.94
2017-11-21T05:05:32.276Z,1009.91
2017-11-21T05:06:53.768Z,1009.9
2017-11-21T05:08:16.030Z,1009.91
2017-11-21T05:09:38.069Z,1009.87
2017-11-21T05:11:00.039Z,1009.95
2017-11-21T05:12:21.614Z,1009.96
2017-11-21T05:13:43.314Z,1009.99
2017-11-21T05:15:05.025Z,1009.98
2017-11-21T05:16:26.465Z,1010.02
2017-11-21T05:17:48.184Z,1010.05
2017-11-21T05:19:10.201Z,1010.02
2017-11-21T05:20:31.637Z,1010.04
2017-11-21T05:21:53.794Z,1010.07
2017-11-21T05:23:15.506Z,1010
2017-11-21T05:24:37.504Z,1010.01
2017-11-21T05:25:59.480Z,1010.03
2017-11-21T05:27:21.467Z,1009.97
2017-11-21T05:28:42.896Z,1010
2017-11-21T05:30:04.948Z,1009.98
2017-11-21T05:31:26.805Z,1009.88
2017-11-21T05:32:48.817Z,1009.86
2017-11-21T05:34:11.105Z,1009.85
2017-11-21T05:35:32.541Z,1009.86
2017-11-21T05:36:54.585Z,1009.8
2017-11-21T05:38:16.645Z,1009.79
2017-11-21T05:39:37.934Z,1009.73
2017-11-21T05:40:59.385Z,1009.77
2017-11-21T05:42:21.665Z,1009.79
2017-11-21T05:43:43.672Z,1009.82
2017-11-21T05:45:04.886Z,1009.81
2017-11-21T05:46:26.596Z,1009.83
2017-11-21T05:47:48.961Z,1009.78
2017-11-21T05:49:10.696Z,1009.83
2017-11-21T05:50:32.244Z,1009.84
2017-11-21T05:51:53.937Z,1009.91
2017-11-21T05:53:15.655Z,1009.94
2017-11-21T05:54:37.636Z,1009.94
2017-11-21T05:55:59.077Z,1009.94
2017-11-21T05:57:20.514Z,1009.96
2017-11-21T05:58:41.964Z,1009.94
2017-11-21T06:00:03.406Z,1009.94
2017-11-21T06:01:25.667Z,1009.99
2017-11-21T06:02:47.381Z,1009.96
2017-11-21T06:04:08.671Z,1009.95
2017-11-21T06:05:30.675Z,1009.97
2017-11-21T06:06:53.033Z,1010
2017-11-21T06:08:14.575Z,1010
2017-11-21T06:09:36.655Z,1010.02
2017-11-21T06:10:58.712Z,1010.05
2017-11-21T06:12:20.456Z,1010.06
2017-11-21T06:13:42.164Z,1010.05
2017-11-21T06:15:04.406Z,1010.07
2017-11-21T06:16:25.575Z,1010.03
2017-11-21T06:17:47.363Z,1010.06
2017-11-21T06:19:08.796Z,1010.09
2017-11-21T06:20:31.145Z,1010.1
2017-11-21T06:21:52.597Z,1010.09
2017-11-21T06:23:14.326Z,1010.07
2017-11-21T06:24:36.745Z,1010.09
2017-11-21T06:25:58.840Z,1010.02
2017-11-21T06:27:20.357Z,1010.06
2017-11-21T06:28:41.780Z,1010.07
2017-11-21T06:30:03.222Z,1010.06
2017-11-21T06:31:24.655Z,1010.06
2017-11-21T06:32:46.732Z,1010.05
2017-11-21T06:34:08.735Z,1010.12
2017-11-21T06:35:30.721Z,1010.17
2017-11-21T06:36:51.913Z,1010.21
2017-11-21T06:38:13.687Z,1010.21
2017-11-21T06:39:35.702Z,1010.2
2017-11-21T06:40:57.717Z,1010.18
2017-11-21T06:42:19.734Z,1010.17
2017-11-21T06:43:41.717Z,1010.2
2017-11-21T06:45:03.268Z,1010.23
2017-11-21T06:46:25.004Z,1010.24
2017-11-21T06:47:46.728Z,1010.19
2017-11-21T06:49:08.751Z,1010.2
2017-11-21T06:50:30.537Z,1010.2
2017-11-21T06:51:52.792Z,1010.25
2017-11-21T06:53:14.275Z,1010.24
2017-11-21T06:54:36.329Z,1010.16
2017-11-21T06:55:58.025Z,1010.18
2017-11-21T06:57:20.005Z,1010.21
2017-11-21T06:58:42.261Z,1010.24
2017-11-21T07:00:04.027Z,1010.26
2017-11-21T07:01:25.194Z,1010.22
2017-11-21T07:02:47.810Z,1010.31
2017-11-21T07:04:09.904Z,1010.29
2017-11-21T07:05:31.084Z,1010.33
2017-11-21T07:06:53.397Z,1010.36
2017-11-21T07:08:15.647Z,1010.36
2017-11-21T07:09:37.526Z,1010.39
2017-11-21T07:10:59.510Z,1010.33
2017-11-21T07:12:21.594Z,1010.34
2017-11-21T07:13:44.053Z,1010.38
2017-11-21T07:15:05.545Z,1010.36
2017-11-21T07:16:27.923Z,1010.38
2017-11-21T07:17:49.905Z,1010.34
2017-11-21T07:19:11.623Z,1010.28
2017-11-21T07:20:33.614Z,1010.27
2017-11-21T07:21:55.053Z,1010.29
2017-11-21T07:23:16.796Z,1010.36
2017-11-21T07:24:37.991Z,1010.3
2017-11-21T07:26:00.236Z,1010.3
2017-11-21T07:27:22.301Z,1010.3
2017-11-21T07:28:44.284Z,1010.34
2017-11-21T07:30:06.259Z,1010.37
2017-11-21T07:31:28.502Z,1010.4
2017-11-21T07:32:49.684Z,1010.37
2017-11-21T07:34:11.693Z,1010.36
2017-11-21T07:35:33.934Z,1010.38
2017-11-21T07:36:56.006Z,1010.38
2017-11-21T07:38:17.719Z,1010.37
2017-11-21T07:39:39.737Z,1010.31
2017-11-21T07:41:01.498Z,1010.35
2017-11-21T07:42:23.514Z,1010.37
2017-11-21T07:43:44.739Z,1010.38
2017-11-21T07:45:06.734Z,1010.4
2017-11-21T07:46:28.733Z,1010.37
2017-11-21T07:47:50.766Z,1010.4
2017-11-21T07:49:11.943Z,1010.41
2017-11-21T07:50:34.434Z,1010.45
2017-11-21T07:51:56.144Z,1010.49
2017-11-21T07:53:18.125Z,1010.51
2017-11-21T07:54:39.867Z,1010.51
2017-11-21T07:56:01.892Z,1010.59
2017-11-21T07:57:23.621Z,1010.58
2017-11-21T07:58:45.628Z,1010.54
2017-11-21T08:00:07.619Z,1010.55
2017-11-21T08:01:29.516Z,1010.52
2017-11-21T08:02:50.966Z,1010.53
2017-11-21T08:04:12.962Z,1010.51
2017-11-21T08:05:34.519Z,1010.49
2017-11-21T08:06:56.535Z,1010.47
2017-11-21T08:08:18.560Z,1010.46
2017-11-21T08:09:40.273Z,1010.45
2017-11-21T08:11:02.315Z,1010.46
2017-11-21T08:12:24.042Z,1010.47
2017-11-21T08:13:45.653Z,1010.52
2017-11-21T08:15:07.384Z,1010.52
2017-11-21T08:16:29.094Z,1010.51
2017-11-21T08:17:50.045Z,1010.57
2017-11-21T08:19:12.074Z,1010.54
2017-11-21T08:20:33.774Z,1010.52
2017-11-21T08:21:55.289Z,1010.57
2017-11-21T08:23:17.265Z,1010.52
2017-11-21T08:24:39.634Z,1010.57
2017-11-21T08:26:01.113Z,1010.6
2017-11-21T08:27:22.885Z,1010.66
2017-11-21T08:28:44.879Z,1010.67
2017-11-21T08:30:06.597Z,1010.67
2017-11-21T08:31:28.305Z,1010.68
2017-11-21T08:32:50.678Z,1010.72
2017-11-21T08:34:12.395Z,1010.71
2017-11-21T08:35:34.354Z,1010.68
2017-11-21T08:36:56.115Z,1010.68
2017-11-21T08:38:18.388Z,1010.71
2017-11-21T08:39:40.221Z,1010.66
2017-11-21T08:41:01.925Z,1010.67
2017-11-21T08:42:23.076Z,1010.65
2017-11-21T08:43:45.344Z,1010.69
2017-11-21T08:45:07.084Z,1010.73
2017-11-21T08:46:29.500Z,1010.77
2017-11-21T08:47:51.001Z,1010.71
2017-11-21T08:49:13.044Z,1010.78
2017-11-21T08:50:34.773Z,1010.85
2017-11-21T08:51:57.025Z,1010.84
2017-11-21T08:53:19.545Z,1010.85
2017-11-21T08:54:41.823Z,1010.84
2017-11-21T08:56:04.013Z,1010.88
2017-11-21T08:57:25.723Z,1010.86
2017-11-21T08:58:47.983Z,1010.84
2017-11-21T09:00:10.126Z,1010.83
2017-11-21T09:01:32.113Z,1010.87
2017-11-21T09:02:54.109Z,1010.85
2017-11-21T09:04:15.865Z,1010.88
2017-11-21T09:05:37.827Z,1010.86
2017-11-21T09:06:59.533Z,1010.87
2017-11-21T09:08:21.364Z,1010.84
2017-11-21T09:09:43.406Z,1010.87
2017-11-21T09:11:04.886Z,1010.86
2017-11-21T09:12:26.905Z,1010.83
2017-11-21T09:13:48.332Z,1010.9
2017-11-21T09:15:10.063Z,1010.88
2017-11-21T09:16:32.104Z,1010.89
2017-11-21T09:17:53.554Z,1010.9
2017-11-21T09:19:15.294Z,1010.93
2017-11-21T09:20:37.574Z,1010.92
2017-11-21T09:21:59.836Z,1010.96
2017-11-21T09:23:21.275Z,1010.94
2017-11-21T09:24:43.273Z,1010.94
2017-11-21T09:26:04.724Z,1010.84
2017-11-21T09:27:26.683Z,1010.81
2017-11-21T09:28:47.855Z,1010.88
2017-11-21T09:30:09.856Z,1010.84
2017-11-21T09:31:31.559Z,1010.87
2017-11-21T09:32:53.577Z,1010.9
2017-11-21T09:34:15.318Z,1010.91
2017-11-21T09:35:37.077Z,1010.91
2017-11-21T09:36:58.535Z,1010.86
2017-11-21T09:38:20.822Z,1010.86
2017-11-21T09:39:42.286Z,1010.89
2017-11-21T09:41:04.655Z,1010.84
2017-11-21T09:42:26.724Z,1010.83
2017-11-21T09:43:48.443Z,1010.85
2017-11-21T09:45:10.463Z,1010.83
2017-11-21T09:46:32.195Z,1010.85
2017-11-21T09:47:54.200Z,1010.83
2017-11-21T09:49:15.925Z,1010.84
2017-11-21T09:50:38.179Z,1010.81
2017-11-21T09:52:00.217Z,1010.83
2017-11-21T09:53:21.934Z,1010.86
2017-11-21T09:54:43.981Z,1010.83
2017-11-21T09:56:06.265Z,1010.87
2017-11-21T09:57:27.736Z,1010.88
2017-11-21T09:58:49.531Z,1010.89
2017-11-21T10:00:11.256Z,1010.82
2017-11-21T10:01:32.990Z,1010.85
2017-11-21T10:02:55.014Z,1010.84
2017-11-21T10:04:17.025Z,1010.79
2017-11-21T10:05:39.044Z,1010.74
2017-11-21T10:07:00.880Z,1010.69
2017-11-21T10:08:23.239Z,1010.73
2017-11-21T10:09:45.495Z,1010.7
2017-11-21T10:11:07.505Z,1010.81
2017-11-21T10:12:28.966Z,1010.79
2017-11-21T10:13:51.000Z,1010.78
2017-11-21T10:15:13.077Z,1010.71
2017-11-21T10:16:34.524Z,1010.72
2017-11-21T10:17:56.269Z,1010.73
2017-11-21T10:19:18.276Z,1010.74
2017-11-21T10:20:39.976Z,1010.7
2017-11-21T10:22:01.144Z,1010.72
2017-11-21T10:23:22.905Z,1010.7
2017-11-21T10:24:45.141Z,1010.65
2017-11-21T10:26:07.146Z,1010.7
2017-11-21T10:27:28.855Z,1010.7
2017-11-21T10:28:50.843Z,1010.73
2017-11-21T10:30:12.586Z,1010.69
2017-11-21T10:31:34.422Z,1010.63
2017-11-21T10:32:56.395Z,1010.63
2017-11-21T10:34:18.386Z,1010.67
2017-11-21T10:35:39.907Z,1010.6
2017-11-21T10:37:01.739Z,1010.64
2017-11-21T10:38:24.000Z,1010.6
2017-11-21T10:39:45.995Z,1010.62
2017-11-21T10:41:07.715Z,1010.61
2017-11-21T10:42:29.434Z,1010.58
2017-11-21T10:43:51.156Z,1010.62
2017-11-21T10:45:12.610Z,1010.57
2017-11-21T10:46:34.645Z,1010.6
2017-11-21T10:47:56.634Z,1010.57
2017-11-21T10:49:18.607Z,1010.54
2017-11-21T10:50:40.091Z,1010.53
2017-11-21T10:52:01.847Z,1010.52
2017-11-21T10:53:23.318Z,1010.44
2017-11-21T10:54:45.325Z,1010.42
2017-11-21T10:56:06.763Z,1010.43
2017-11-21T10:57:28.468Z,1010.44
2017-11-21T10:58:50.535Z,1010.35
2017-11-21T11:00:12.551Z,1010.35
2017-11-21T11:01:34.264Z,1010.34
2017-11-21T11:02:55.720Z,1010.31
2017-11-21T11:04:17.717Z,1010.28
2017-11-21T11:05:39.166Z,1010.29
2017-11-21T11:07:00.895Z,1010.29
2017-11-21T11:08:22.914Z,1010.28
2017-11-21T11:09:44.364Z,1010.26
2017-11-21T11:11:05.855Z,1010.28
2017-11-21T11:12:28.131Z,1010.25
2017-11-21T11:13:50.172Z,1010.26
2017-11-21T11:15:11.904Z,1010.24
2017-11-21T11:16:33.695Z,1010.22
2017-11-21T11:17:56.104Z,1010.25
2017-11-21T11:19:18.088Z,1010.23
2017-11-21T11:20:40.365Z,1010.23
2017-11-21T11:22:02.080Z,1010.23
2017-11-21T11:23:23.872Z,1010.18
2017-11-21T11:24:45.333Z,1010.2
2017-11-21T11:26:07.103Z,1010.18
2017-11-21T11:27:28.555Z,1010.19
2017-11-21T11:28:50.006Z,1010.18
2017-11-21T11:30:12.052Z,1010.19
2017-11-21T11:31:34.172Z,1010.19
2017-11-21T11:32:55.905Z,1010.18
2017-11-21T11:34:17.648Z,1010.11
2017-11-21T11:35:39.096Z,1010.1
2017-11-21T11:37:00.575Z,1010.09
2017-11-21T11:38:22.025Z,1010.1
2017-11-21T11:39:44.285Z,1010.07
2017-11-21T11:41:06.395Z,1010.07
2017-11-21T11:42:27.568Z,1010.08
2017-11-21T11:43:49.634Z,1010.1
2017-11-21T11:45:11.906Z,1010.05
2017-11-21T11:46:33.914Z,1010.11
2017-11-21T11:47:56.297Z,1010.11
2017-11-21T11:49:18.379Z,1010.09
2017-11-21T11:50:39.918Z,1010.13
2017-11-21T11:52:02.217Z,1010.11
2017-11-21T11:53:24.209Z,1010.07
2017-11-21T11:54:45.668Z,1010.07
2017-11-21T11:56:07.382Z,1010.09
2017-11-21T11:57:29.399Z,1010.02
2017-11-21T11:58:51.247Z,1010.06
2017-11-21T12:00:13.013Z,1010.04
2017-11-21T12:01:35.296Z,1010.02
2017-11-21T12:02:57.509Z,1010.05
2017-11-21T12:04:19.064Z,1010.05
2017-11-21T12:05:40.779Z,1010.03
2017-11-21T12:07:02.796Z,1010
2017-11-21T12:08:24.236Z,1010.03
2017-11-21T12:09:46.259Z,1010
2017-11-21T12:11:08.005Z,1009.98
2017-11-21T12:12:29.990Z,1010
2017-11-21T12:13:52.108Z,1009.98
2017-11-21T12:15:14.100Z,1009.97
2017-11-21T12:16:36.127Z,1009.99
2017-11-21T12:17:58.156Z,1009.89
2017-11-21T12:19:19.600Z,1009.92
2017-11-21T12:20:41.045Z,1009.89
2017-11-21T12:22:02.286Z,1009.86
2017-11-21T12:23:24.243Z,1009.87
2017-11-21T12:24:46.277Z,1009.85
2017-11-21T12:26:08.670Z,1009.84
2017-11-21T12:27:30.536Z,1009.85
2017-11-21T12:28:52.261Z,1009.8
2017-11-21T12:30:13.758Z,1009.81
2017-11-21T12:31:35.758Z,1009.75
2017-11-21T12:32:57.499Z,1009.81
2017-11-21T12:34:19.211Z,1009.77
2017-11-21T12:35:40.927Z,1009.83
2017-11-21T12:37:02.932Z,1009.75
2017-11-21T12:38:25.441Z,1009.73
2017-11-21T12:39:47.437Z,1009.72
2017-11-21T12:41:09.739Z,1009.73
2017-11-21T12:42:32.154Z,1009.77
2017-11-21T12:43:53.886Z,1009.74
2017-11-21T12:45:16.018Z,1009.71
2017-11-21T12:46:37.747Z,1009.65
2017-11-21T12:48:00.086Z,1009.62
2017-11-21T12:49:21.789Z,1009.65
2017-11-21T12:50:44.165Z,1009.6
2017-11-21T12:52:06.270Z,1009.55
2017-11-21T12:53:28.281Z,1009.56
2017-11-21T12:54:50.329Z,1009.59
2017-11-21T12:56:12.322Z,1009.57
2017-11-21T12:57:34.595Z,1009.58
2017-11-21T12:58:56.368Z,1009.56
2017-11-21T13:00:18.396Z,1009.6
2017-11-21T13:01:40.378Z,1009.58
2017-11-21T13:03:02.208Z,1009.63
2017-11-21T13:04:24.502Z,1009.57
2017-11-21T13:05:46.516Z,1009.54
2017-11-21T13:07:08.521Z,1009.59
2017-11-21T13:08:30.699Z,1009.55
2017-11-21T13:09:52.720Z,1009.5
2017-11-21T13:11:14.389Z,1009.48
2017-11-21T13:12:36.387Z,1009.47
2017-11-21T13:13:58.404Z,1009.48
2017-11-21T13:15:20.447Z,1009.45
2017-11-21T13:16:42.476Z,1009.47
2017-11-21T13:18:04.182Z,1009.44
2017-11-21T13:19:25.618Z,1009.4
2017-11-21T13:20:47.375Z,1009.41
2017-11-21T13:22:09.403Z,1009.38
2017-11-21T13:23:31.415Z,1009.42
2017-11-21T13:24:53.160Z,1009.41
2017-11-21T13:26:14.616Z,1009.41
2017-11-21T13:27:36.353Z,1009.39
2017-11-21T13:28:58.075Z,1009.4
2017-11-21T13:30:20.153Z,1009.39
2017-11-21T13:31:41.584Z,1009.39
2017-11-21T13:33:03.554Z,1009.34
2017-11-21T13:34:25.724Z,1009.35
2017-11-21T13:35:47.737Z,1009.33
2017-11-21T13:37:09.719Z,1009.31
2017-11-21T13:38:31.727Z,1009.28
2017-11-21T13:39:53.757Z,1009.26
2017-11-21T13:41:15.766Z,1009.23
2017-11-21T13:42:37.497Z,1009.23
2017-11-21T13:43:59.045Z,1009.26
2017-11-21T13:45:21.332Z,1009.27
2017-11-21T13:46:43.436Z,1009.3
2017-11-21T13:48:05.432Z,1009.27
2017-11-21T13:49:27.146Z,1009.26
2017-11-21T13:50:49.426Z,1009.28
2017-11-21T13:52:11.707Z,1009.27
2017-11-21T13:53:33.998Z,1009.28
2017-11-21T13:54:56.087Z,1009.27
2017-11-21T13:56:18.089Z,1009.23
2017-11-21T13:57:40.086Z,1009.2
2017-11-21T13:59:02.647Z,1009.21
2017-11-21T14:00:24.356Z,1009.18
2017-11-21T14:01:46.638Z,1009.19
2017-11-21T14:03:08.918Z,1009.17
2017-11-21T14:04:30.664Z,1009.14
2017-11-21T14:05:52.674Z,1009.13
2017-11-21T14:07:14.957Z,1009.13
2017-11-21T14:08:36.965Z,1009.09
2017-11-21T14:09:59.357Z,1009.08
2017-11-21T14:11:21.446Z,1009.09
2017-11-21T14:12:43.486Z,1009.06
2017-11-21T14:14:05.790Z,1009.07
2017-11-21T14:15:28.135Z,1009.09
2017-11-21T14:16:49.320Z,1009.06
2017-11-21T14:18:10.505Z,1009.06
2017-11-21T14:19:32.828Z,1009.06
2017-11-21T14:20:54.830Z,1009.03
2017-11-21T14:22:17.136Z,1008.97
2017-11-21T14:23:38.578Z,1008.96
2017-11-21T14:25:00.367Z,1008.97
2017-11-21T14:26:22.635Z,1008.95
2017-11-21T14:27:44.365Z,1008.94
2017-11-21T14:29:06.338Z,1008.93
2017-11-21T14:30:28.618Z,1008.92
2017-11-21T14:31:50.356Z,1008.91
2017-11-21T14:33:12.389Z,1008.9
2017-11-21T14:34:34.661Z,1008.86
2017-11-21T14:35:56.967Z,1008.92
2017-11-21T14:37:19.247Z,1008.88
2017-11-21T14:38:41.024Z,1008.87
2017-11-21T14:40:03.292Z,1008.84
2017-11-21T14:41:25.028Z,1008.85
2017-11-21T14:42:46.599Z,1008.84
2017-11-21T14:44:08.705Z,1008.85
2017-11-21T14:45:30.167Z,1008.85
2017-11-21T14:46:52.478Z,1008.83
2017-11-21T14:48:13.936Z,1008.8
2017-11-21T14:49:35.527Z,1008.78
2017-11-21T14:50:57.536Z,1008.79
2017-11-21T14:52:19.351Z,1008.77
2017-11-21T14:53:41.406Z,1008.8
2017-11-21T14:55:02.926Z,1008.81
2017-11-21T14:56:24.945Z,1008.79
2017-11-21T14:57:47.268Z,1008.8
2017-11-21T14:59:09.558Z,1008.79
2017-11-21T15:00:31.405Z,1008.81
2017-11-21T15:01:53.699Z,1008.84
2017-11-21T15:03:15.717Z,1008.81
2017-11-21T15:04:36.615Z,1008.77
2017-11-21T15:05:58.327Z,1008.79
2017-11-21T15:07:19.771Z,1008.81
2017-11-21T15:08:41.486Z,1008.85
2017-11-21T15:10:02.935Z,1008.84
2017-11-21T15:11:24.658Z,1008.87
2017-11-21T15:12:46.409Z,1008.84
2017-11-21T15:14:08.129Z,1008.86
2017-11-21T15:15:30.220Z,1008.85
2017-11-21T15:16:52.239Z,1008.84
2017-11-21T15:18:14.245Z,1008.81
2017-11-21T15:19:36.554Z,1008.84
2017-11-21T15:20:58.642Z,1008.83
2017-11-21T15:22:20.941Z,1008.82
2017-11-21T15:23:43.254Z,1008.78
2017-11-21T15:25:04.700Z,1008.8
2017-11-21T15:26:26.788Z,1008.83
2017-11-21T15:27:49.094Z,1008.83
2017-11-21T15:29:10.805Z,1008.84
2017-11-21T15:30:32.866Z,1008.87
2017-11-21T15:31:54.607Z,1008.88
2017-11-21T15:33:16.631Z,1008.85
2017-11-21T15:34:38.925Z,1008.88
2017-11-21T15:36:00.915Z,1008.86
2017-11-21T15:37:22.914Z,1008.82
2017-11-21T15:38:44.932Z,1008.8
2017-11-21T15:40:06.399Z,1008.81
2017-11-21T15:41:28.132Z,1008.83
2017-11-21T15:42:50.433Z,1008.82
2017-11-21T15:44:12.165Z,1008.8
2017-11-21T15:45:34.187Z,1008.77
2017-11-21T15:46:56.205Z,1008.76
2017-11-21T15:48:17.959Z,1008.79
2017-11-21T15:49:40.229Z,1008.77
2017-11-21T15:51:02.223Z,1008.72
2017-11-21T15:52:23.965Z,1008.67
2017-11-21T15:53:45.415Z,1008.66
2017-11-21T15:55:07.744Z,1008.61
2017-11-21T15:56:29.255Z,1008.61
2017-11-21T15:57:50.997Z,1008.54
2017-11-21T15:59:13.016Z,1008.6
2017-11-21T16:00:34.765Z,1008.5
2017-11-21T16:01:56.264Z,1008.47
2017-11-21T16:03:17.742Z,1008.38
2017-11-21T16:04:39.475Z,1008.26
2017-11-21T16:06:01.511Z,1008.29
2017-11-21T16:07:23.525Z,1008.32
2017-11-21T16:08:45.571Z,1008.32
2017-11-21T16:10:07.602Z,1008.27
2017-11-21T16:11:29.614Z,1008.28
2017-11-21T16:12:52.053Z,1008.32
2017-11-21T16:14:13.808Z,1008.26
2017-11-21T16:15:35.805Z,1008.2
2017-11-21T16:16:57.825Z,1008.18
2017-11-21T16:18:19.545Z,1008.17
2017-11-21T16:19:41.304Z,1008.15
2017-11-21T16:21:03.377Z,1008.13
2017-11-21T16:22:25.735Z,1008.16
2017-11-21T16:23:47.714Z,1008.15
2017-11-21T16:25:09.734Z,1008.06
2017-11-21T16:26:31.740Z,1008.06
2017-11-21T16:27:53.485Z,1008.03
2017-11-21T16:29:15.525Z,1008.04
2017-11-21T16:30:37.854Z,1008.11
2017-11-21T16:31:59.841Z,1008.1
2017-11-21T16:33:21.942Z,1008.11